sensor_id;sensor_type;location;lat;lon;timestamp;temperature;humidity
16785;DHT22;8509;52.178;5.404;2024-03-23T00:52:48;8.30;99.90
16785;DHT22;8509;52.178;5.404;2024-03-23T00:55:14;8.20;99.90
16785;DHT22;8509;52.178;5.404;2024-03-23T00:57:39;8.10;99.90
16785;DHT22;8509;52.178;5.404;2024-03-23T01:00:06;7.90;99.90
16785;DHT22;8509;52.178;5.404;2024-03-23T01:02:32;7.90;99.90
16785;DHT22;8509;52.178;5.404;2024-03-23T01:04:59;7.80;99.90
16785;DHT22;8509;52.178;5.404;2024-03-23T01:07:25;7.80;99.90
16785;DHT22;8509;52.178;5.404;2024-03-23T01:09:51;7.70;99.90
16785;DHT22;8509;52.178;5.404;2024-03-23T01:12:19;7.80;99.90
16785;DHT22;8509;52.178;5.404;2024-03-23T01:14:45;7.60;99.90
16785;DHT22;8509;52.178;5.404;2024-03-23T01:17:11;7.60;99.90
16785;DHT22;8509;52.178;5.404;2024-03-23T01:19:36;7.60;99.90
16785;DHT22;8509;52.178;5.404;2024-03-23T01:22:04;7.60;99.90
16785;DHT22;8509;52.178;5.404;2024-03-23T01:24:30;7.60;99.90
16785;DHT22;8509;52.178;5.404;2024-03-23T01:26:56;7.60;99.90
16785;DHT22;8509;52.178;5.404;2024-03-23T01:29:23;7.60;99.90
16785;DHT22;8509;52.178;5.404;2024-03-23T01:31:49;7.80;99.90
16785;DHT22;8509;52.178;5.404;2024-03-23T01:34:14;7.80;99.90
16785;DHT22;8509;52.178;5.404;2024-03-23T01:36:40;7.60;99.90
16785;DHT22;8509;52.178;5.404;2024-03-23T01:39:05;7.50;99.90
16785;DHT22;8509;52.178;5.404;2024-03-23T01:41:35;7.60;99.90
16785;DHT22;8509;52.178;5.404;2024-03-23T01:44:05;7.60;99.90
16785;DHT22;8509;52.178;5.404;2024-03-23T01:46:37;7.50;99.90
16785;DHT22;8509;52.178;5.404;2024-03-23T01:49:05;7.40;99.90
16785;DHT22;8509;52.178;5.404;2024-03-23T01:51:31;7.40;99.90
16785;DHT22;8509;52.178;5.404;2024-03-23T01:53:57;7.20;99.90
16785;DHT22;8509;52.178;5.404;2024-03-23T01:56:26;7.20;99.90
16785;DHT22;8509;52.178;5.404;2024-03-23T01:58:52;7.20;99.90
16785;DHT22;8509;52.178;5.404;2024-03-23T02:01:17;7.10;99.90
16785;DHT22;8509;52.178;5.404;2024-03-23T02:03:44;7.20;99.90
16785;DHT22;8509;52.178;5.404;2024-03-23T02:06:10;7.10;99.90
16785;DHT22;8509;52.178;5.404;2024-03-23T02:08:36;6.90;99.90
16785;DHT22;8509;52.178;5.404;2024-03-23T02:11:02;6.80;99.90
16785;DHT22;8509;52.178;5.404;2024-03-23T02:13:28;6.80;99.90
16785;DHT22;8509;52.178;5.404;2024-03-23T02:15:54;6.90;99.90
16785;DHT22;8509;52.178;5.404;2024-03-23T02:18:19;6.70;99.90
16785;DHT22;8509;52.178;5.404;2024-03-23T02:20:45;6.80;99.90
16785;DHT22;8509;52.178;5.404;2024-03-23T02:23:17;6.70;99.90
16785;DHT22;8509;52.178;5.404;2024-03-23T02:25:45;6.70;99.90
16785;DHT22;8509;52.178;5.404;2024-03-23T02:28:11;6.70;99.90
16785;DHT22;8509;52.178;5.404;2024-03-23T02:30:38;6.80;99.90
16785;DHT22;8509;52.178;5.404;2024-03-23T02:33:03;6.70;99.90
16785;DHT22;8509;52.178;5.404;2024-03-23T02:35:29;6.60;99.90
16785;DHT22;8509;52.178;5.404;2024-03-23T02:37:55;6.80;99.90
16785;DHT22;8509;52.178;5.404;2024-03-23T02:40:23;6.70;99.90
16785;DHT22;8509;52.178;5.404;2024-03-23T02:42:49;6.60;99.90
16785;DHT22;8509;52.178;5.404;2024-03-23T02:45:14;6.60;99.90
16785;DHT22;8509;52.178;5.404;2024-03-23T02:47:40;6.50;99.90
16785;DHT22;8509;52.178;5.404;2024-03-23T02:50:06;6.40;99.90
16785;DHT22;8509;52.178;5.404;2024-03-23T02:52:33;6.50;99.90
16785;DHT22;8509;52.178;5.404;2024-03-23T02:54:58;6.50;99.90
16785;DHT22;8509;52.178;5.404;2024-03-23T02:57:24;6.40;99.90
16785;DHT22;8509;52.178;5.404;2024-03-23T02:59:50;6.40;99.90
16785;DHT22;8509;52.178;5.404;2024-03-23T03:02:16;6.30;99.90
16785;DHT22;8509;52.178;5.404;2024-03-23T03:04:41;6.30;99.90
16785;DHT22;8509;52.178;5.404;2024-03-23T03:07:07;6.30;99.90
16785;DHT22;8509;52.178;5.404;2024-03-23T03:09:33;6.30;99.90
16785;DHT22;8509;52.178;5.404;2024-03-23T03:12:03;6.20;99.90
16785;DHT22;8509;52.178;5.404;2024-03-23T03:14:29;6.20;99.90
16785;DHT22;8509;52.178;5.404;2024-03-23T03:16:55;6.20;99.90
16785;DHT22;8509;52.178;5.404;2024-03-23T03:19:22;6.10;99.90
16785;DHT22;8509;52.178;5.404;2024-03-23T03:21:48;6.10;99.90
16785;DHT22;8509;52.178;5.404;2024-03-23T03:24:13;6.10;99.90
16785;DHT22;8509;52.178;5.404;2024-03-23T03:26:39;6.00;99.90
16785;DHT22;8509;52.178;5.404;2024-03-23T03:29:05;6.00;99.90
16785;DHT22;8509;52.178;5.404;2024-03-23T03:31:31;6.00;99.90
16785;DHT22;8509;52.178;5.404;2024-03-23T03:33:57;6.00;99.90
16785;DHT22;8509;52.178;5.404;2024-03-23T03:36:22;5.90;99.90
16785;DHT22;8509;52.178;5.404;2024-03-23T03:38:48;5.90;99.90
16785;DHT22;8509;52.178;5.404;2024-03-23T03:41:14;5.90;99.90
16785;DHT22;8509;52.178;5.404;2024-03-23T03:43:39;5.80;99.90
16785;DHT22;8509;52.178;5.404;2024-03-23T03:46:05;5.80;99.90
16785;DHT22;8509;52.178;5.404;2024-03-23T03:48:33;5.80;99.90
16785;DHT22;8509;52.178;5.404;2024-03-23T03:50:59;5.80;99.90
16785;DHT22;8509;52.178;5.404;2024-03-23T03:53:25;5.70;99.90
16785;DHT22;8509;52.178;5.404;2024-03-23T03:55:52;5.70;99.90
16785;DHT22;8509;52.178;5.404;2024-03-23T03:58:22;5.70;99.90
16785;DHT22;8509;52.178;5.404;2024-03-23T04:00:48;5.60;99.90
16785;DHT22;8509;52.178;5.404;2024-03-23T04:03:13;5.70;99.90
16785;DHT22;8509;52.178;5.404;2024-03-23T04:05:39;5.60;99.90
16785;DHT22;8509;52.178;5.404;2024-03-23T04:08:07;5.60;99.90
16785;DHT22;8509;52.178;5.404;2024-03-23T04:10:35;5.60;99.90
16785;DHT22;8509;52.178;5.404;2024-03-23T04:13:01;5.50;99.90
16785;DHT22;8509;52.178;5.404;2024-03-23T04:15:29;5.60;99.90
16785;DHT22;8509;52.178;5.404;2024-03-23T04:17:55;5.50;99.90
16785;DHT22;8509;52.178;5.404;2024-03-23T04:20:21;5.40;99.90
16785;DHT22;8509;52.178;5.404;2024-03-23T04:22:46;5.40;99.90
16785;DHT22;8509;52.178;5.404;2024-03-23T04:25:13;5.40;99.90
16785;DHT22;8509;52.178;5.404;2024-03-23T04:27:40;5.50;99.90
16785;DHT22;8509;52.178;5.404;2024-03-23T04:30:07;5.50;99.90
16785;DHT22;8509;52.178;5.404;2024-03-23T04:32:39;5.70;99.90
16785;DHT22;8509;52.178;5.404;2024-03-23T04:35:05;5.60;99.90
16785;DHT22;8509;52.178;5.404;2024-03-23T04:37:32;5.60;99.90
16785;DHT22;8509;52.178;5.404;2024-03-23T04:40:00;5.70;99.90
16785;DHT22;8509;52.178;5.404;2024-03-23T04:42:25;5.60;99.90
16785;DHT22;8509;52.178;5.404;2024-03-23T04:44:51;5.50;99.90
16785;DHT22;8509;52.178;5.404;2024-03-23T04:47:17;5.40;99.90
16785;DHT22;8509;52.178;5.404;2024-03-23T04:49:43;5.40;99.90
16785;DHT22;8509;52.178;5.404;2024-03-23T04:52:09;5.50;99.90
16785;DHT22;8509;52.178;5.404;2024-03-23T04:54:35;5.50;99.90
16785;DHT22;8509;52.178;5.404;2024-03-23T04:57:01;5.40;99.90
16785;DHT22;8509;52.178;5.404;2024-03-23T04:59:26;5.60;99.90
16785;DHT22;8509;52.178;5.404;2024-03-23T05:01:52;5.40;99.90
16785;DHT22;8509;52.178;5.404;2024-03-23T05:04:18;5.40;99.90
16785;DHT22;8509;52.178;5.404;2024-03-23T05:06:45;5.30;99.90
16785;DHT22;8509;52.178;5.404;2024-03-23T05:09:11;5.30;99.90
16785;DHT22;8509;52.178;5.404;2024-03-23T05:11:41;5.20;99.90
16785;DHT22;8509;52.178;5.404;2024-03-23T05:14:10;5.20;99.90
16785;DHT22;8509;52.178;5.404;2024-03-23T05:16:36;5.20;99.90
16785;DHT22;8509;52.178;5.404;2024-03-23T05:19:01;5.10;99.90
16785;DHT22;8509;52.178;5.404;2024-03-23T05:21:27;5.20;99.90
16785;DHT22;8509;52.178;5.404;2024-03-23T05:23:54;5.20;99.90
16785;DHT22;8509;52.178;5.404;2024-03-23T05:26:20;5.20;99.90
16785;DHT22;8509;52.178;5.404;2024-03-23T05:28:46;5.00;99.90
16785;DHT22;8509;52.178;5.404;2024-03-23T05:31:12;5.00;99.90
16785;DHT22;8509;52.178;5.404;2024-03-23T05:33:38;5.00;99.90
16785;DHT22;8509;52.178;5.404;2024-03-23T05:36:04;5.20;99.90
16785;DHT22;8509;52.178;5.404;2024-03-23T05:38:30;5.00;99.90
16785;DHT22;8509;52.178;5.404;2024-03-23T05:40:56;5.00;99.90
16785;DHT22;8509;52.178;5.404;2024-03-23T05:43:22;5.00;99.90
16785;DHT22;8509;52.178;5.404;2024-03-23T05:45:54;5.10;99.90
16785;DHT22;8509;52.178;5.404;2024-03-23T05:48:20;5.20;99.90
16785;DHT22;8509;52.178;5.404;2024-03-23T05:50:47;5.30;99.90
16785;DHT22;8509;52.178;5.404;2024-03-23T05:53:19;5.40;99.90
16785;DHT22;8509;52.178;5.404;2024-03-23T05:55:50;5.50;99.90
16785;DHT22;8509;52.178;5.404;2024-03-23T05:58:16;5.60;99.90
16785;DHT22;8509;52.178;5.404;2024-03-23T06:00:43;5.70;99.90
16785;DHT22;8509;52.178;5.404;2024-03-23T06:03:09;5.60;99.90
16785;DHT22;8509;52.178;5.404;2024-03-23T06:05:38;5.60;99.90
16785;DHT22;8509;52.178;5.404;2024-03-23T06:08:04;5.60;99.90
16785;DHT22;8509;52.178;5.404;2024-03-23T06:10:30;5.50;99.90
16785;DHT22;8509;52.178;5.404;2024-03-23T06:12:57;5.50;99.90
16785;DHT22;8509;52.178;5.404;2024-03-23T06:15:24;5.40;99.90
16785;DHT22;8509;52.178;5.404;2024-03-23T06:17:50;5.50;99.90
16785;DHT22;8509;52.178;5.404;2024-03-23T06:20:15;5.60;99.90
16785;DHT22;8509;52.178;5.404;2024-03-23T06:22:41;5.50;99.90
16785;DHT22;8509;52.178;5.404;2024-03-23T06:25:07;5.50;99.90
16785;DHT22;8509;52.178;5.404;2024-03-23T06:27:33;5.60;99.90
16785;DHT22;8509;52.178;5.404;2024-03-23T06:29:59;5.60;99.90
16785;DHT22;8509;52.178;5.404;2024-03-23T06:32:26;5.70;99.90
16785;DHT22;8509;52.178;5.404;2024-03-23T06:34:51;5.60;99.90
16785;DHT22;8509;52.178;5.404;2024-03-23T06:37:17;5.80;99.90
16785;DHT22;8509;52.178;5.404;2024-03-23T06:39:43;5.80;99.90
16785;DHT22;8509;52.178;5.404;2024-03-23T06:42:08;5.80;99.90
16785;DHT22;8509;52.178;5.404;2024-03-23T06:44:34;5.90;99.90
16785;DHT22;8509;52.178;5.404;2024-03-23T06:47:06;6.00;99.90
16785;DHT22;8509;52.178;5.404;2024-03-23T06:49:45;6.00;99.90
16785;DHT22;8509;52.178;5.404;2024-03-23T06:52:16;6.10;99.90
16785;DHT22;8509;52.178;5.404;2024-03-23T06:54:41;6.40;99.90
16785;DHT22;8509;52.178;5.404;2024-03-23T06:57:16;6.40;99.90
16785;DHT22;8509;52.178;5.404;2024-03-23T06:59:41;6.60;99.90
16785;DHT22;8509;52.178;5.404;2024-03-23T07:02:07;6.80;99.90
16785;DHT22;8509;52.178;5.404;2024-03-23T07:04:36;6.90;99.90
16785;DHT22;8509;52.178;5.404;2024-03-23T07:07:03;7.30;99.90
16785;DHT22;8509;52.178;5.404;2024-03-23T07:09:29;7.30;99.90
16785;DHT22;8509;52.178;5.404;2024-03-23T07:11:56;7.50;99.90
16785;DHT22;8509;52.178;5.404;2024-03-23T07:14:23;7.60;99.90
16785;DHT22;8509;52.178;5.404;2024-03-23T07:16:49;7.80;99.90
16785;DHT22;8509;52.178;5.404;2024-03-23T07:19:18;7.80;99.90
16785;DHT22;8509;52.178;5.404;2024-03-23T07:21:47;8.00;99.90
16785;DHT22;8509;52.178;5.404;2024-03-23T07:24:13;8.10;99.90
16785;DHT22;8509;52.178;5.404;2024-03-23T07:26:39;8.20;99.90
16785;DHT22;8509;52.178;5.404;2024-03-23T07:29:06;8.30;99.90
16785;DHT22;8509;52.178;5.404;2024-03-23T07:31:31;8.40;99.90
16785;DHT22;8509;52.178;5.404;2024-03-23T07:33:59;8.50;99.90
16785;DHT22;8509;52.178;5.404;2024-03-23T07:36:24;8.60;99.90
16785;DHT22;8509;52.178;5.404;2024-03-23T07:38:50;8.70;99.90
16785;DHT22;8509;52.178;5.404;2024-03-23T07:41:18;8.70;99.90
16785;DHT22;8509;52.178;5.404;2024-03-23T07:43:45;8.80;99.90
16785;DHT22;8509;52.178;5.404;2024-03-23T07:46:11;8.80;99.90
16785;DHT22;8509;52.178;5.404;2024-03-23T07:48:38;9.10;99.90
16785;DHT22;8509;52.178;5.404;2024-03-23T07:51:04;9.20;99.90
16785;DHT22;8509;52.178;5.404;2024-03-23T07:53:32;9.70;99.90
16785;DHT22;8509;52.178;5.404;2024-03-23T07:56:01;9.80;99.90
16785;DHT22;8509;52.178;5.404;2024-03-23T07:58:27;9.80;99.90
16785;DHT22;8509;52.178;5.404;2024-03-23T08:00:54;9.60;99.90
16785;DHT22;8509;52.178;5.404;2024-03-23T08:03:20;9.90;99.90
16785;DHT22;8509;52.178;5.404;2024-03-23T08:05:46;9.90;99.90
16785;DHT22;8509;52.178;5.404;2024-03-23T08:08:12;9.80;99.90
16785;DHT22;8509;52.178;5.404;2024-03-23T08:10:51;10.00;99.90
16785;DHT22;8509;52.178;5.404;2024-03-23T08:13:18;10.20;99.90
16785;DHT22;8509;52.178;5.404;2024-03-23T08:15:44;10.50;99.90
16785;DHT22;8509;52.178;5.404;2024-03-23T08:18:13;10.80;99.90
16785;DHT22;8509;52.178;5.404;2024-03-23T08:20:41;10.80;99.90
16785;DHT22;8509;52.178;5.404;2024-03-23T08:23:07;10.60;99.90
16785;DHT22;8509;52.178;5.404;2024-03-23T08:25:33;10.80;99.90
16785;DHT22;8509;52.178;5.404;2024-03-23T08:28:01;10.70;99.90
16785;DHT22;8509;52.178;5.404;2024-03-23T08:30:28;10.50;99.90
16785;DHT22;8509;52.178;5.404;2024-03-23T08:32:53;10.20;99.90
16785;DHT22;8509;52.178;5.404;2024-03-23T08:35:19;10.00;99.90
16785;DHT22;8509;52.178;5.404;2024-03-23T08:37:45;10.00;99.90
16785;DHT22;8509;52.178;5.404;2024-03-23T08:40:11;10.20;99.90
16785;DHT22;8509;52.178;5.404;2024-03-23T08:42:37;10.10;99.90
16785;DHT22;8509;52.178;5.404;2024-03-23T08:45:03;10.10;99.90
16785;DHT22;8509;52.178;5.404;2024-03-23T08:47:29;10.30;99.90
16785;DHT22;8509;52.178;5.404;2024-03-23T08:49:54;10.30;99.90
16785;DHT22;8509;52.178;5.404;2024-03-23T08:52:20;10.30;99.90
16785;DHT22;8509;52.178;5.404;2024-03-23T08:54:48;10.00;99.90
16785;DHT22;8509;52.178;5.404;2024-03-23T08:57:14;9.80;99.90
16785;DHT22;8509;52.178;5.404;2024-03-23T08:59:39;9.70;99.90
16785;DHT22;8509;52.178;5.404;2024-03-23T09:02:05;9.90;99.90
16785;DHT22;8509;52.178;5.404;2024-03-23T09:04:31;10.10;99.90
16785;DHT22;8509;52.178;5.404;2024-03-23T09:06:57;10.30;99.90
16785;DHT22;8509;52.178;5.404;2024-03-23T09:09:24;10.40;99.90
16785;DHT22;8509;52.178;5.404;2024-03-23T09:11:50;10.10;99.90
16785;DHT22;8509;52.178;5.404;2024-03-23T09:14:18;10.20;99.90
16785;DHT22;8509;52.178;5.404;2024-03-23T09:16:44;10.10;99.90
16785;DHT22;8509;52.178;5.404;2024-03-23T09:19:10;10.30;99.90
16785;DHT22;8509;52.178;5.404;2024-03-23T09:21:35;10.30;99.90
16785;DHT22;8509;52.178;5.404;2024-03-23T09:24:02;10.20;99.90
16785;DHT22;8509;52.178;5.404;2024-03-23T09:26:27;9.80;99.90
16785;DHT22;8509;52.178;5.404;2024-03-23T09:28:55;9.70;99.90
16785;DHT22;8509;52.178;5.404;2024-03-23T09:31:20;9.70;99.90
16785;DHT22;8509;52.178;5.404;2024-03-23T09:33:47;9.80;99.90
16785;DHT22;8509;52.178;5.404;2024-03-23T09:36:13;9.80;99.90
16785;DHT22;8509;52.178;5.404;2024-03-23T09:38:38;9.90;99.90
16785;DHT22;8509;52.178;5.404;2024-03-23T09:41:08;10.00;99.90
16785;DHT22;8509;52.178;5.404;2024-03-23T09:43:34;10.30;99.90
16785;DHT22;8509;52.178;5.404;2024-03-23T09:46:02;10.60;99.90
16785;DHT22;8509;52.178;5.404;2024-03-23T09:48:28;10.70;99.90
16785;DHT22;8509;52.178;5.404;2024-03-23T09:50:53;10.70;99.90
16785;DHT22;8509;52.178;5.404;2024-03-23T09:53:19;10.50;99.90
16785;DHT22;8509;52.178;5.404;2024-03-23T09:55:45;10.60;99.90
16785;DHT22;8509;52.178;5.404;2024-03-23T09:58:16;10.70;99.90
16785;DHT22;8509;52.178;5.404;2024-03-23T10:00:41;11.30;99.90
16785;DHT22;8509;52.178;5.404;2024-03-23T10:03:08;11.60;99.90
16785;DHT22;8509;52.178;5.404;2024-03-23T10:05:37;11.60;99.90
16785;DHT22;8509;52.178;5.404;2024-03-23T10:10:45;11.00;99.90
16785;DHT22;8509;52.178;5.404;2024-03-23T10:13:23;11.40;99.90
16785;DHT22;8509;52.178;5.404;2024-03-23T10:15:55;11.20;99.90
16785;DHT22;8509;52.178;5.404;2024-03-23T10:18:21;10.70;99.90
16785;DHT22;8509;52.178;5.404;2024-03-23T10:21:11;10.40;99.90
16785;DHT22;8509;52.178;5.404;2024-03-23T10:23:38;10.30;99.90
16785;DHT22;8509;52.178;5.404;2024-03-23T10:26:24;10.80;99.90
16785;DHT22;8509;52.178;5.404;2024-03-23T10:31:20;10.90;99.90
16785;DHT22;8509;52.178;5.404;2024-03-23T10:33:47;10.90;99.90
16785;DHT22;8509;52.178;5.404;2024-03-23T10:36:13;11.40;99.90
16785;DHT22;8509;52.178;5.404;2024-03-23T10:38:43;11.30;99.90
16785;DHT22;8509;52.178;5.404;2024-03-23T10:41:09;11.20;99.90
16785;DHT22;8509;52.178;5.404;2024-03-23T10:43:37;11.10;99.90
16785;DHT22;8509;52.178;5.404;2024-03-23T10:46:04;11.00;99.90
16785;DHT22;8509;52.178;5.404;2024-03-23T10:48:30;10.80;99.90
16785;DHT22;8509;52.178;5.404;2024-03-23T10:50:56;10.70;99.90
16785;DHT22;8509;52.178;5.404;2024-03-23T10:53:26;10.50;99.90
16785;DHT22;8509;52.178;5.404;2024-03-23T10:55:53;10.20;99.90
16785;DHT22;8509;52.178;5.404;2024-03-23T10:58:26;9.90;99.90
16785;DHT22;8509;52.178;5.404;2024-03-23T11:00:53;9.90;99.90
16785;DHT22;8509;52.178;5.404;2024-03-23T11:06:07;9.90;99.90
16785;DHT22;8509;52.178;5.404;2024-03-23T11:08:39;10.10;99.90
16785;DHT22;8509;52.178;5.404;2024-03-23T11:11:18;10.60;99.90
16785;DHT22;8509;52.178;5.404;2024-03-23T11:13:48;11.00;99.90
16785;DHT22;8509;52.178;5.404;2024-03-23T11:18:49;11.30;99.90
16785;DHT22;8509;52.178;5.404;2024-03-23T11:21:53;11.20;99.90
16785;DHT22;8509;52.178;5.404;2024-03-23T11:24:22;11.30;99.90
16785;DHT22;8509;52.178;5.404;2024-03-23T11:26:48;11.30;99.90
16785;DHT22;8509;52.178;5.404;2024-03-23T11:29:16;11.30;99.90
16785;DHT22;8509;52.178;5.404;2024-03-23T11:31:49;11.00;99.90
16785;DHT22;8509;52.178;5.404;2024-03-23T11:34:18;10.70;99.90
16785;DHT22;8509;52.178;5.404;2024-03-23T11:36:44;10.20;99.90
16785;DHT22;8509;52.178;5.404;2024-03-23T11:39:14;10.00;99.90
16785;DHT22;8509;52.178;5.404;2024-03-23T11:41:49;9.70;99.90
16785;DHT22;8509;52.178;5.404;2024-03-23T11:44:33;9.60;99.90
16785;DHT22;8509;52.178;5.404;2024-03-23T11:47:08;9.80;99.90
16785;DHT22;8509;52.178;5.404;2024-03-23T11:49:39;9.80;99.90
16785;DHT22;8509;52.178;5.404;2024-03-23T11:52:07;9.90;99.90
16785;DHT22;8509;52.178;5.404;2024-03-23T11:54:33;10.20;99.90
16785;DHT22;8509;52.178;5.404;2024-03-23T11:57:08;10.40;99.90
16785;DHT22;8509;52.178;5.404;2024-03-23T12:02:05;10.70;99.90
16785;DHT22;8509;52.178;5.404;2024-03-23T12:04:31;10.60;99.90
16785;DHT22;8509;52.178;5.404;2024-03-23T12:07:14;10.60;99.90
16785;DHT22;8509;52.178;5.404;2024-03-23T12:09:41;10.70;99.90
16785;DHT22;8509;52.178;5.404;2024-03-23T12:12:08;10.70;99.90
16785;DHT22;8509;52.178;5.404;2024-03-23T12:14:34;10.60;99.90
16785;DHT22;8509;52.178;5.404;2024-03-23T12:17:13;10.50;99.90
16785;DHT22;8509;52.178;5.404;2024-03-23T12:19:43;10.50;99.90
16785;DHT22;8509;52.178;5.404;2024-03-23T12:22:13;10.50;99.90
16785;DHT22;8509;52.178;5.404;2024-03-23T12:24:39;10.80;99.90
16785;DHT22;8509;52.178;5.404;2024-03-23T12:27:10;10.90;99.90
16785;DHT22;8509;52.178;5.404;2024-03-23T12:29:36;11.20;99.90
16785;DHT22;8509;52.178;5.404;2024-03-23T12:32:02;11.30;99.90
16785;DHT22;8509;52.178;5.404;2024-03-23T12:34:28;11.20;99.90
16785;DHT22;8509;52.178;5.404;2024-03-23T12:36:57;11.30;99.90
16785;DHT22;8509;52.178;5.404;2024-03-23T12:39:23;11.50;99.90
16785;DHT22;8509;52.178;5.404;2024-03-23T12:41:56;11.70;99.90
16785;DHT22;8509;52.178;5.404;2024-03-23T12:44:22;11.60;99.90
16785;DHT22;8509;52.178;5.404;2024-03-23T12:46:49;11.30;99.90
16785;DHT22;8509;52.178;5.404;2024-03-23T12:49:15;11.10;99.90
16785;DHT22;8509;52.178;5.404;2024-03-23T12:52:02;11.00;99.90
16785;DHT22;8509;52.178;5.404;2024-03-23T12:54:31;11.00;99.90
16785;DHT22;8509;52.178;5.404;2024-03-23T12:56:57;11.10;99.90
16785;DHT22;8509;52.178;5.404;2024-03-23T12:59:22;11.20;99.90
16785;DHT22;8509;52.178;5.404;2024-03-23T13:01:48;11.40;99.90
16785;DHT22;8509;52.178;5.404;2024-03-23T13:04:14;11.50;99.90
16785;DHT22;8509;52.178;5.404;2024-03-23T13:06:40;11.70;99.90
16785;DHT22;8509;52.178;5.404;2024-03-23T13:09:06;11.80;99.90
16785;DHT22;8509;52.178;5.404;2024-03-23T13:11:31;11.50;99.90
16785;DHT22;8509;52.178;5.404;2024-03-23T13:13:57;11.40;99.90
16785;DHT22;8509;52.178;5.404;2024-03-23T13:16:24;11.40;99.90
16785;DHT22;8509;52.178;5.404;2024-03-23T13:18:49;11.70;99.90
16785;DHT22;8509;52.178;5.404;2024-03-23T13:21:15;11.80;99.90
16785;DHT22;8509;52.178;5.404;2024-03-23T13:23:50;11.80;99.90
16785;DHT22;8509;52.178;5.404;2024-03-23T13:26:16;11.70;99.90
16785;DHT22;8509;52.178;5.404;2024-03-23T13:28:43;11.60;99.90
16785;DHT22;8509;52.178;5.404;2024-03-23T13:31:10;11.80;99.90
16785;DHT22;8509;52.178;5.404;2024-03-23T13:33:36;11.60;99.90
16785;DHT22;8509;52.178;5.404;2024-03-23T13:36:05;11.10;99.90
16785;DHT22;8509;52.178;5.404;2024-03-23T13:38:46;10.70;99.90
16785;DHT22;8509;52.178;5.404;2024-03-23T13:41:32;10.60;99.90
16785;DHT22;8509;52.178;5.404;2024-03-23T13:43:58;10.50;99.90
16785;DHT22;8509;52.178;5.404;2024-03-23T13:46:25;10.40;99.90
16785;DHT22;8509;52.178;5.404;2024-03-23T13:48:51;10.50;99.90
16785;DHT22;8509;52.178;5.404;2024-03-23T13:51:23;10.60;99.90
16785;DHT22;8509;52.178;5.404;2024-03-23T13:53:50;10.70;99.90
16785;DHT22;8509;52.178;5.404;2024-03-23T13:56:16;10.40;99.90
16785;DHT22;8509;52.178;5.404;2024-03-23T13:58:43;10.30;99.90
16785;DHT22;8509;52.178;5.404;2024-03-23T14:01:19;10.00;99.90
16785;DHT22;8509;52.178;5.404;2024-03-23T14:03:46;9.60;99.90
16785;DHT22;8509;52.178;5.404;2024-03-23T14:06:12;9.60;99.90
16785;DHT22;8509;52.178;5.404;2024-03-23T14:08:38;9.70;99.90
16785;DHT22;8509;52.178;5.404;2024-03-23T14:11:10;9.90;99.90
16785;DHT22;8509;52.178;5.404;2024-03-23T14:13:36;10.20;99.90
16785;DHT22;8509;52.178;5.404;2024-03-23T14:16:07;10.20;99.90
16785;DHT22;8509;52.178;5.404;2024-03-23T14:18:43;10.30;99.90
16785;DHT22;8509;52.178;5.404;2024-03-23T14:21:10;10.30;99.90
16785;DHT22;8509;52.178;5.404;2024-03-23T14:23:36;10.30;99.90
16785;DHT22;8509;52.178;5.404;2024-03-23T14:26:08;10.40;99.90
16785;DHT22;8509;52.178;5.404;2024-03-23T14:28:34;10.60;99.90
16785;DHT22;8509;52.178;5.404;2024-03-23T14:31:06;10.50;99.90
16785;DHT22;8509;52.178;5.404;2024-03-23T14:33:39;10.40;99.90
16785;DHT22;8509;52.178;5.404;2024-03-23T14:36:10;10.30;99.90
16785;DHT22;8509;52.178;5.404;2024-03-23T14:38:47;10.00;99.90
16785;DHT22;8509;52.178;5.404;2024-03-23T14:41:17;10.00;99.90
16785;DHT22;8509;52.178;5.404;2024-03-23T14:43:43;9.90;99.90
16785;DHT22;8509;52.178;5.404;2024-03-23T14:46:16;10.00;99.90
16785;DHT22;8509;52.178;5.404;2024-03-23T14:48:55;10.00;99.90
16785;DHT22;8509;52.178;5.404;2024-03-23T14:51:21;10.10;99.90
16785;DHT22;8509;52.178;5.404;2024-03-23T14:53:47;10.50;99.90
16785;DHT22;8509;52.178;5.404;2024-03-23T14:56:22;10.70;99.90
16785;DHT22;8509;52.178;5.404;2024-03-23T14:59:30;10.60;99.90
16785;DHT22;8509;52.178;5.404;2024-03-23T15:01:57;10.30;99.90
16785;DHT22;8509;52.178;5.404;2024-03-23T15:04:23;10.30;99.90
16785;DHT22;8509;52.178;5.404;2024-03-23T15:06:49;10.10;99.90
16785;DHT22;8509;52.178;5.404;2024-03-23T15:09:16;9.60;99.90
16785;DHT22;8509;52.178;5.404;2024-03-23T15:11:41;9.50;99.90
16785;DHT22;8509;52.178;5.404;2024-03-23T15:14:08;9.40;99.90
16785;DHT22;8509;52.178;5.404;2024-03-23T15:16:40;9.60;99.90
16785;DHT22;8509;52.178;5.404;2024-03-23T15:19:07;9.50;99.90
16785;DHT22;8509;52.178;5.404;2024-03-23T15:21:33;9.70;99.90
16785;DHT22;8509;52.178;5.404;2024-03-23T15:23:59;9.70;99.90
16785;DHT22;8509;52.178;5.404;2024-03-23T15:26:25;9.70;99.90
16785;DHT22;8509;52.178;5.404;2024-03-23T15:28:50;9.50;99.90
16785;DHT22;8509;52.178;5.404;2024-03-23T15:31:19;9.40;99.90
16785;DHT22;8509;52.178;5.404;2024-03-23T15:33:45;9.40;99.90
16785;DHT22;8509;52.178;5.404;2024-03-23T15:36:10;9.50;99.90
16785;DHT22;8509;52.178;5.404;2024-03-23T15:38:38;9.50;99.90
16785;DHT22;8509;52.178;5.404;2024-03-23T15:41:04;9.70;99.90
16785;DHT22;8509;52.178;5.404;2024-03-23T15:43:30;9.70;99.90
16785;DHT22;8509;52.178;5.404;2024-03-23T15:46:03;9.50;99.90
16785;DHT22;8509;52.178;5.404;2024-03-23T15:48:30;9.60;99.90
16785;DHT22;8509;52.178;5.404;2024-03-23T15:51:02;9.70;99.90
16785;DHT22;8509;52.178;5.404;2024-03-23T15:53:30;9.90;99.90
16785;DHT22;8509;52.178;5.404;2024-03-23T15:56:02;9.90;99.90
16785;DHT22;8509;52.178;5.404;2024-03-23T15:58:30;9.70;99.90
16785;DHT22;8509;52.178;5.404;2024-03-23T16:01:07;9.60;99.90
16785;DHT22;8509;52.178;5.404;2024-03-23T16:03:49;9.50;99.90
16785;DHT22;8509;52.178;5.404;2024-03-23T16:06:14;9.30;99.90
16785;DHT22;8509;52.178;5.404;2024-03-23T16:08:40;9.30;99.90
16785;DHT22;8509;52.178;5.404;2024-03-23T16:11:07;9.10;99.90
16785;DHT22;8509;52.178;5.404;2024-03-23T16:13:34;9.20;99.90
16785;DHT22;8509;52.178;5.404;2024-03-23T16:16:02;9.10;99.90
16785;DHT22;8509;52.178;5.404;2024-03-23T16:18:29;9.10;99.90
16785;DHT22;8509;52.178;5.404;2024-03-23T16:20:59;9.10;99.90
16785;DHT22;8509;52.178;5.404;2024-03-23T16:23:26;9.20;99.90
16785;DHT22;8509;52.178;5.404;2024-03-23T16:25:53;9.20;99.90
16785;DHT22;8509;52.178;5.404;2024-03-23T16:28:34;9.10;99.90
16785;DHT22;8509;52.178;5.404;2024-03-23T16:31:20;9.10;99.90
16785;DHT22;8509;52.178;5.404;2024-03-23T16:33:46;9.00;99.90
16785;DHT22;8509;52.178;5.404;2024-03-23T16:36:12;8.80;99.90
16785;DHT22;8509;52.178;5.404;2024-03-23T16:38:39;8.70;99.90
16785;DHT22;8509;52.178;5.404;2024-03-23T16:41:10;8.60;99.90
16785;DHT22;8509;52.178;5.404;2024-03-23T16:43:40;8.30;99.90
16785;DHT22;8509;52.178;5.404;2024-03-23T16:46:10;8.20;99.90
16785;DHT22;8509;52.178;5.404;2024-03-23T16:48:55;8.10;99.90
16785;DHT22;8509;52.178;5.404;2024-03-23T16:51:38;8.00;99.90
16785;DHT22;8509;52.178;5.404;2024-03-23T16:54:04;7.90;99.90
16785;DHT22;8509;52.178;5.404;2024-03-23T16:56:29;7.90;99.90
16785;DHT22;8509;52.178;5.404;2024-03-23T16:58:56;7.90;99.90
16785;DHT22;8509;52.178;5.404;2024-03-23T17:01:22;7.90;99.90
16785;DHT22;8509;52.178;5.404;2024-03-23T17:03:51;8.00;99.90